Maimiti — PBIJ — position and weather

sailwx.info

Track history (hours):
 
Tides and Currents Weather Stations Pressure Air Temp Water Temp Dewpoint Dewpoint Depression Visibility Wind Speed Wind Dir Waves Ship Positions

Maimiti

Last reported at 2014-Jul-24 23:26 UTC. Time now 2014-Jul-25 09:08 UTC.
Position N 36°28' E 023°22'.

Length 87 m; draft 4.7 m.

Type: Cargo ship. MMSI: 244312000.

Date/timePositionNaut miles runAvg speedWind from/ knotsBaromVisibWave heightAir tempDewpointWater temp
2014-Jul-24 23:26N 36°28' E 023°22'1010.9
2014-Jul-24 22:32N 36°34' E 023°32'1410.9
2014-Jul-24 21:13N 36°41' E 023°47'2810.6
2014-Jul-24 18:33N 36°56' E 024°17'2110.4
2014-Jul-24 16:32N 37°08' E 024°39'1010.7
2014-Jul-24 15:33N 37°15' E 024°49'1111.3
2014-Jul-24 14:33N 37°23' E 024°58'2 2.1
2014-Jul-24 13:33N 37°25' E 024°58'0 0.1
2014-Jul-24 12:32N 37°25' E 024°58'0 0.1
2014-Jul-24 11:33N 37°25' E 024°58'1 1.0
2014-Jul-24 10:32N 37°26' E 024°59'10 9.8
2014-Jul-24 09:33N 37°29' E 025°11'273 9.4
2014-Jul-23 04:33N 40°57' E 028°57'  
Track history (hours):
 
Tides and Currents Weather Stations Pressure Air Temp Water Temp Dewpoint Dewpoint Depression Visibility Wind Speed Wind Dir Waves Ship Positions

Maimiti

Last reported at 2014-Jul-24 23:26 UTC. Time now 2014-Jul-25 09:08 UTC.
Position N 36°28' E 023°22'.

Length 87 m; draft 4.7 m.

Type: Cargo ship. MMSI: 244312000.

Date/timePositionNaut miles runAvg speedWind from/ knotsBaromVisibWave heightAir tempDewpointWater temp
2014-Jul-24 23:26N 36°28' E 023°22'1010.9
2014-Jul-24 22:32N 36°34' E 023°32'1410.9
2014-Jul-24 21:13N 36°41' E 023°47'2810.6
2014-Jul-24 18:33N 36°56' E 024°17'2110.4
2014-Jul-24 16:32N 37°08' E 024°39'1010.7
2014-Jul-24 15:33N 37°15' E 024°49'1111.3
2014-Jul-24 14:33N 37°23' E 024°58'2 2.1
2014-Jul-24 13:33N 37°25' E 024°58'0 0.1
2014-Jul-24 12:32N 37°25' E 024°58'0 0.1
2014-Jul-24 11:33N 37°25' E 024°58'1 1.0
2014-Jul-24 10:32N 37°26' E 024°59'10 9.8
2014-Jul-24 09:33N 37°29' E 025°11'273 9.4
2014-Jul-23 04:33N 40°57' E 028°57'  

Dump ship's entire track history